createdAt,value
2023-05-16T00:03:28.487Z,16.70
2023-05-16T00:08:31.420Z,16.80
2023-05-16T00:13:33.557Z,16.90
2023-05-16T00:18:39.360Z,17.00
2023-05-16T00:23:41.447Z,17.00
2023-05-16T00:28:43.525Z,17.20
2023-05-16T00:33:45.650Z,17.20
2023-05-16T00:38:47.909Z,17.10
2023-05-16T00:43:50.362Z,17.10
2023-05-16T00:48:52.826Z,17.30
2023-05-16T00:53:57.012Z,17.20
2023-05-16T00:58:59.717Z,17.20
2023-05-16T01:04:02.411Z,17.20
2023-05-16T01:09:06.080Z,17.20
2023-05-16T01:14:49.615Z,17.10
2023-05-16T01:20:17.600Z,16.70
2023-05-16T01:26:07.678Z,16.90
2023-05-16T01:31:09.853Z,17.10
2023-05-16T01:36:40.999Z,17.20
2023-05-16T01:42:12.895Z,17.20
2023-05-16T01:47:19.627Z,17.20
2023-05-16T01:52:45.328Z,17.20
2023-05-16T01:57:50.622Z,17.30
2023-05-16T02:02:53.018Z,17.10
2023-05-16T02:07:55.777Z,17.10
2023-05-16T02:12:58.079Z,16.60
2023-05-16T02:18:00.274Z,16.70
2023-05-16T02:23:03.468Z,16.60
2023-05-16T02:28:07.593Z,16.20
2023-05-16T02:33:11.611Z,16.10
2023-05-16T02:38:17.605Z,16.30
2023-05-16T02:43:19.813Z,16.20
2023-05-16T02:48:22.393Z,16.40
2023-05-16T02:53:24.752Z,16.40
2023-05-16T02:58:26.951Z,16.30
2023-05-16T03:03:30.199Z,16.10
2023-05-16T03:08:32.759Z,16.30
2023-05-16T03:13:34.936Z,16.60
2023-05-16T03:18:37.308Z,16.50
2023-05-16T03:23:39.651Z,16.50
2023-05-16T03:28:41.917Z,16.10
2023-05-16T03:33:44.210Z,16.00
2023-05-16T03:38:46.333Z,16.10
2023-05-16T03:43:48.442Z,16.30
2023-05-16T03:48:50.616Z,16.30
2023-05-16T03:53:52.970Z,16.20
2023-05-16T03:58:55.330Z,16.10
2023-05-16T04:03:57.451Z,16.00
2023-05-16T04:08:59.572Z,16.10
2023-05-16T04:14:02.021Z,16.10
2023-05-16T04:19:04.499Z,15.90
2023-05-16T04:24:07.760Z,15.80
2023-05-16T04:29:10.321Z,15.90
2023-05-16T04:34:13.321Z,16.20
2023-05-16T04:39:15.628Z,16.10
2023-05-16T04:44:17.870Z,16.20
2023-05-16T04:49:20.684Z,16.30
2023-05-16T04:54:23.078Z,16.10
2023-05-16T04:59:25.802Z,16.40
2023-05-16T05:04:27.965Z,16.60
2023-05-16T05:09:30.151Z,16.70
2023-05-16T05:14:32.265Z,16.70
2023-05-16T05:19:34.481Z,16.70
2023-05-16T05:24:37.197Z,16.80
2023-05-16T05:29:40.471Z,16.80
2023-05-16T05:34:42.585Z,16.90
2023-05-16T05:39:45.278Z,17.10
2023-05-16T05:44:47.423Z,17.10
2023-05-16T05:49:50.551Z,17.20
2023-05-16T05:54:52.988Z,17.10
2023-05-16T05:59:55.477Z,17.00
2023-05-16T06:04:57.706Z,16.90
2023-05-16T06:10:05.274Z,17.10
2023-05-16T06:15:08.706Z,17.10
2023-05-16T06:20:11.981Z,16.80
2023-05-16T06:25:14.189Z,16.90
2023-05-16T06:30:16.319Z,17.10
2023-05-16T06:35:18.638Z,16.90
2023-05-16T06:40:21.070Z,16.80
2023-05-16T06:45:23.516Z,16.80
2023-05-16T06:50:28.525Z,16.70
2023-05-16T06:55:30.963Z,16.80
2023-05-16T07:00:33.305Z,17.10
2023-05-16T07:05:35.556Z,17.20
2023-05-16T07:10:37.929Z,17.10
2023-05-16T07:15:40.139Z,17.10
2023-05-16T07:20:42.397Z,17.10
2023-05-16T07:25:44.950Z,17.10
2023-05-16T07:30:47.449Z,17.10
2023-05-16T07:35:51.122Z,17.20
2023-05-16T07:40:54.224Z,17.70
2023-05-16T07:45:56.799Z,17.70
2023-05-16T07:50:59.187Z,17.80
2023-05-16T07:56:01.534Z,18.00
2023-05-16T08:01:03.994Z,18.20
2023-05-16T08:06:06.693Z,18.30
2023-05-16T08:11:09.051Z,18.20
2023-05-16T08:16:12.091Z,18.30
2023-05-16T08:21:14.783Z,18.50
2023-05-16T08:26:18.519Z,18.60
2023-05-16T08:31:21.462Z,18.50
2023-05-16T08:36:26.652Z,18.40
2023-05-16T08:41:29.547Z,18.40
2023-05-16T08:46:36.967Z,18.40
2023-05-16T08:51:40.453Z,18.30
2023-05-16T08:56:44.483Z,18.40
2023-05-16T09:01:47.758Z,18.40
2023-05-16T09:06:51.257Z,18.40
2023-05-16T09:11:53.709Z,18.40
2023-05-16T09:17:10.223Z,18.20
2023-05-16T09:22:15.970Z,18.30
2023-05-16T09:27:18.563Z,18.40
2023-05-16T09:32:21.049Z,18.60
2023-05-16T09:37:23.372Z,18.60
2023-05-16T09:42:26.219Z,18.90
2023-05-16T09:47:29.072Z,19.00
2023-05-16T09:52:31.401Z,19.00
2023-05-16T09:57:33.716Z,19.00
2023-05-16T10:02:38.859Z,19.40
2023-05-16T10:07:43.166Z,20.20
2023-05-16T10:12:46.243Z,20.80
2023-05-16T10:17:53.804Z,20.40
2023-05-16T10:22:58.648Z,20.20
2023-05-16T10:28:02.773Z,20.30
2023-05-16T10:33:05.315Z,20.00
2023-05-16T10:38:12.161Z,20.00
2023-05-16T10:43:28.110Z,20.10
2023-05-16T10:48:36.502Z,19.80
2023-05-16T10:53:38.626Z,19.50
2023-05-16T10:58:46.637Z,19.20
2023-05-16T11:03:57.925Z,19.10
2023-05-16T11:09:06.111Z,19.00
2023-05-16T11:14:08.839Z,18.90
2023-05-16T11:19:11.170Z,18.80
2023-05-16T11:24:30.383Z,18.80
2023-05-16T11:29:36.715Z,18.80
2023-05-16T11:34:39.838Z,18.70
2023-05-16T11:39:42.368Z,18.60
2023-05-16T11:44:45.481Z,18.60
2023-05-16T11:49:49.558Z,18.50
2023-05-16T11:54:52.166Z,18.50
2023-05-16T11:59:54.989Z,18.60
2023-05-16T12:04:57.351Z,18.50
2023-05-16T12:09:59.621Z,18.50
2023-05-16T12:15:04.621Z,18.50
2023-05-16T12:20:13.658Z,18.50
2023-05-16T12:25:28.979Z,18.50
2023-05-16T12:30:33.399Z,18.50
2023-05-16T12:35:39.697Z,18.50
2023-05-16T12:40:44.355Z,18.60
2023-05-16T12:45:55.213Z,18.60
2023-05-16T12:50:57.649Z,18.70
2023-05-16T12:55:59.877Z,18.70
2023-05-16T13:01:02.370Z,18.70
2023-05-16T13:06:05.102Z,18.70
2023-05-16T13:11:07.419Z,18.70
2023-05-16T13:16:10.512Z,18.80
2023-05-16T13:21:12.851Z,18.80
2023-05-16T13:26:15.207Z,18.80
2023-05-16T13:31:17.613Z,18.70
2023-05-16T13:36:19.951Z,18.40
2023-05-16T13:41:22.690Z,18.10
2023-05-16T13:46:25.364Z,17.90
2023-05-16T13:51:27.703Z,17.70
2023-05-16T13:56:29.861Z,17.80
2023-05-16T14:01:32.109Z,17.80
2023-05-16T14:06:34.497Z,17.70
2023-05-16T14:11:36.689Z,17.70
2023-05-16T14:16:39.236Z,17.70
2023-05-16T14:21:41.749Z,17.60
2023-05-16T14:26:44.038Z,17.60
2023-05-16T14:31:47.376Z,17.60
2023-05-16T14:36:49.768Z,17.60
2023-05-16T14:41:52.591Z,17.40
2023-05-16T14:46:55.720Z,17.50
2023-05-16T14:51:58.044Z,17.50
2023-05-16T14:57:00.434Z,17.60
2023-05-16T15:02:02.791Z,17.70
2023-05-16T15:07:05.299Z,17.80
2023-05-16T15:12:08.326Z,17.70
2023-05-16T15:17:10.961Z,17.50
2023-05-16T15:22:13.337Z,17.60
2023-05-16T15:27:15.991Z,17.60
2023-05-16T15:32:18.755Z,17.80
2023-05-16T15:37:21.553Z,17.80
2023-05-16T15:42:23.850Z,17.60
2023-05-16T15:47:27.631Z,17.60
2023-05-16T15:52:29.792Z,17.70
2023-05-16T15:57:32.095Z,17.80
2023-05-16T16:02:34.478Z,17.90
2023-05-16T16:07:36.885Z,18.00
2023-05-16T16:12:40.201Z,17.90
2023-05-16T16:17:42.428Z,17.90
2023-05-16T16:22:44.642Z,17.90
2023-05-16T16:27:46.783Z,17.90
2023-05-16T16:32:49.179Z,17.80
2023-05-16T16:38:05.706Z,17.80
2023-05-16T16:43:09.437Z,17.80
2023-05-16T16:48:11.978Z,17.60
2023-05-16T16:53:14.298Z,17.80
2023-05-16T16:58:16.458Z,17.80
2023-05-16T17:03:19.066Z,17.70
2023-05-16T17:08:21.799Z,17.80
2023-05-16T17:13:24.133Z,17.70
2023-05-16T17:18:27.001Z,17.60
2023-05-16T17:23:29.186Z,17.70
2023-05-16T17:28:32.697Z,17.70
2023-05-16T17:33:34.997Z,17.60
2023-05-16T17:38:37.196Z,17.60
2023-05-16T17:43:39.473Z,17.50
2023-05-16T17:48:42.400Z,17.40
2023-05-16T17:53:45.292Z,17.50
2023-05-16T17:58:47.520Z,17.50
2023-05-16T18:03:50.100Z,17.50
2023-05-16T18:08:52.388Z,17.40
2023-05-16T18:13:54.962Z,17.20
2023-05-16T18:18:58.473Z,17.20
2023-05-16T18:24:00.918Z,17.00
2023-05-16T18:29:03.829Z,17.00
2023-05-16T18:34:05.971Z,17.00
2023-05-16T18:39:10.781Z,16.90
2023-05-16T18:44:13.547Z,16.90
2023-05-16T18:49:16.372Z,16.90
2023-05-16T18:54:18.503Z,16.90
2023-05-16T18:59:21.330Z,16.80
2023-05-16T19:04:23.976Z,17.20
2023-05-16T19:09:26.558Z,17.40
2023-05-16T19:14:28.798Z,17.50
2023-05-16T19:19:31.526Z,17.60
2023-05-16T19:24:33.831Z,17.70
2023-05-16T19:29:36.271Z,17.60
2023-05-16T19:34:38.480Z,17.80
2023-05-16T19:39:40.800Z,17.80
2023-05-16T19:44:43.251Z,17.80
2023-05-16T19:49:45.741Z,17.80
2023-05-16T19:54:47.944Z,17.80
2023-05-16T19:59:52.719Z,17.80
2023-05-16T20:04:55.345Z,17.90
2023-05-16T20:09:57.715Z,17.80
2023-05-16T20:15:00.128Z,17.80
2023-05-16T20:20:02.971Z,17.80
2023-05-16T20:25:10.531Z,17.80
2023-05-16T20:30:13.560Z,17.70
2023-05-16T20:35:16.129Z,17.70
2023-05-16T20:40:18.496Z,17.70
2023-05-16T20:45:21.074Z,17.60
2023-05-16T20:50:23.262Z,17.70
2023-05-16T20:55:26.716Z,17.60
2023-05-16T21:00:29.190Z,17.70
2023-05-16T21:05:33.735Z,17.60
2023-05-16T21:10:36.047Z,17.60
2023-05-16T21:15:38.645Z,17.60
2023-05-16T21:20:40.857Z,17.60
2023-05-16T21:25:43.021Z,17.60
2023-05-16T21:30:45.216Z,17.60
2023-05-16T21:35:47.436Z,17.50
2023-05-16T21:40:49.634Z,17.40
2023-05-16T21:45:51.957Z,17.40
2023-05-16T21:50:54.319Z,17.50
2023-05-16T21:55:56.894Z,17.40
2023-05-16T22:00:59.077Z,17.40
2023-05-16T22:06:01.616Z,17.40
2023-05-16T22:11:03.816Z,17.30
2023-05-16T22:16:06.860Z,17.30
2023-05-16T22:21:09.040Z,17.20
2023-05-16T22:26:11.304Z,17.20
2023-05-16T22:31:13.599Z,17.20
2023-05-16T22:36:15.909Z,17.10
2023-05-16T22:41:18.183Z,17.10
2023-05-16T22:46:23.145Z,16.90
2023-05-16T22:51:25.825Z,16.90
2023-05-16T22:56:28.121Z,16.90
2023-05-16T23:01:30.644Z,16.80
2023-05-16T23:06:32.909Z,16.70
2023-05-16T23:11:35.302Z,16.80
2023-05-16T23:16:37.635Z,16.80
2023-05-16T23:21:40.154Z,16.80
2023-05-16T23:26:42.414Z,16.80
2023-05-16T23:31:45.569Z,16.70
2023-05-16T23:36:47.671Z,16.70
2023-05-16T23:41:49.791Z,16.60
2023-05-16T23:46:51.988Z,16.60
2023-05-16T23:51:57.863Z,16.60
2023-05-16T23:57:00.915Z,16.60
